createdAt,value
2018-11-27T00:00:52.301Z,81.84
2018-11-27T00:01:52.287Z,81.10
2018-11-27T00:02:52.322Z,81.10
2018-11-27T00:03:52.258Z,80.61
2018-11-27T00:04:52.247Z,79.03
2018-11-27T00:05:52.246Z,77.73
2018-11-27T00:06:52.229Z,77.87
2018-11-27T00:07:52.218Z,77.56
2018-11-27T00:08:52.252Z,78.08
2018-11-27T00:09:52.193Z,77.35
2018-11-27T00:10:52.184Z,77.56
2018-11-27T00:11:52.174Z,77.87
2018-11-27T00:12:52.171Z,77.66
2018-11-27T00:13:52.155Z,78.72
2018-11-27T00:14:52.176Z,78.58
2018-11-27T00:15:52.135Z,79.10
2018-11-27T00:16:52.133Z,79.10
2018-11-27T00:17:52.119Z,79.14
2018-11-27T00:18:52.100Z,78.89
2018-11-27T00:19:52.087Z,79.03
2018-11-27T00:20:52.122Z,79.14
2018-11-27T00:21:52.076Z,78.36
2018-11-27T00:22:52.065Z,78.30
2018-11-27T00:24:03.098Z,77.73
2018-11-27T00:24:52.036Z,77.35
2018-11-27T00:25:52.024Z,77.14
2018-11-27T00:26:52.187Z,76.57
2018-11-27T00:27:52.001Z,77.14
2018-11-27T00:28:51.994Z,77.21
2018-11-27T00:29:51.985Z,77.21
2018-11-27T00:30:51.975Z,76.82
2018-11-27T00:31:51.962Z,76.72
2018-11-27T00:32:51.968Z,77.14
2018-11-27T00:33:51.942Z,76.68
2018-11-27T00:34:51.937Z,76.61
2018-11-27T00:35:51.915Z,76.37
2018-11-27T00:36:51.913Z,77.31
2018-11-27T00:37:51.900Z,76.68
2018-11-27T00:38:51.919Z,77.21
2018-11-27T00:39:51.878Z,76.89
2018-11-27T00:40:51.866Z,75.95
2018-11-27T00:41:51.862Z,75.10
2018-11-27T00:42:51.848Z,75.84
2018-11-27T00:43:51.835Z,76.57
2018-11-27T00:44:51.866Z,77.10
2018-11-27T00:45:51.817Z,76.57
2018-11-27T00:46:51.806Z,77.73
2018-11-27T00:47:51.791Z,77.62
2018-11-27T00:48:51.782Z,77.73
2018-11-27T00:49:51.768Z,78.26
2018-11-27T00:50:51.936Z,78.26
2018-11-27T00:51:51.750Z,77.94
2018-11-27T00:52:51.740Z,78.16
2018-11-27T00:53:51.733Z,76.93
2018-11-27T00:55:02.977Z,77.31
2018-11-27T00:55:51.708Z,75.35
2018-11-27T00:56:51.792Z,75.24
2018-11-27T00:57:51.686Z,76.09
2018-11-27T00:58:51.680Z,76.51
2018-11-27T00:59:51.664Z,76.82
2018-11-27T01:00:51.653Z,77.03
2018-11-27T01:01:51.647Z,76.93
2018-11-27T01:02:51.653Z,76.82
2018-11-27T01:03:51.622Z,76.72
2018-11-27T01:04:51.607Z,77.35
2018-11-27T01:05:51.605Z,75.49
2018-11-27T01:06:51.601Z,75.45
2018-11-27T01:07:51.589Z,75.67
2018-11-27T01:08:51.741Z,75.67
2018-11-27T01:09:51.554Z,75.87
2018-11-27T01:10:51.547Z,76.65
2018-11-27T01:11:51.546Z,77.17
2018-11-27T01:12:51.535Z,77.17
2018-11-27T01:13:51.515Z,77.59
2018-11-27T01:14:51.580Z,77.91
2018-11-27T01:15:51.500Z,77.80
2018-11-27T01:16:51.483Z,77.49
2018-11-27T01:17:51.472Z,77.28
2018-11-27T01:18:51.467Z,76.43
2018-11-27T01:19:51.454Z,75.91
2018-11-27T01:20:51.490Z,75.17
2018-11-27T01:21:51.426Z,75.94
2018-11-27T01:22:51.426Z,75.21
2018-11-27T01:23:51.408Z,74.96
2018-11-27T01:24:51.402Z,75.59
2018-11-27T01:26:02.308Z,75.84
2018-11-27T01:26:51.372Z,76.89
2018-11-27T01:27:51.370Z,75.73
2018-11-27T01:28:51.355Z,75.52
2018-11-27T01:29:51.346Z,75.42
2018-11-27T01:30:51.335Z,75.21
2018-11-27T01:31:51.365Z,74.57
2018-11-27T01:32:51.310Z,74.68
2018-11-27T01:33:51.303Z,74.79
2018-11-27T01:34:51.293Z,75.31
2018-11-27T01:35:51.282Z,75.42
2018-11-27T01:36:51.267Z,75.84
2018-11-27T01:37:51.294Z,75.94
2018-11-27T01:38:51.245Z,76.68
2018-11-27T01:39:51.241Z,76.47
2018-11-27T01:40:51.225Z,76.89
2018-11-27T01:41:51.213Z,76.57
2018-11-27T01:42:51.203Z,76.89
2018-11-27T01:43:51.230Z,76.78
2018-11-27T01:44:51.186Z,77.31
2018-11-27T01:45:51.179Z,76.47
2018-11-27T01:46:51.165Z,77.42
2018-11-27T01:47:51.158Z,77.73
2018-11-27T01:48:51.140Z,78.89
2018-11-27T01:49:51.169Z,79.21
2018-11-27T01:50:51.115Z,79.74
2018-11-27T01:51:51.108Z,80.90
2018-11-27T01:52:51.097Z,80.90
2018-11-27T01:53:51.089Z,80.26
2018-11-27T01:54:51.074Z,79.74
2018-11-27T01:55:51.113Z,79.94
2018-11-27T01:57:01.303Z,80.30
2018-11-27T01:57:51.051Z,80.47
2018-11-27T01:58:51.030Z,80.82
2018-11-27T01:59:51.023Z,80.82
2018-11-27T02:00:51.099Z,81.46
2018-11-27T02:01:51.041Z,81.14
2018-11-27T02:02:50.990Z,81.67
2018-11-27T02:03:50.989Z,81.24
2018-11-27T02:04:50.969Z,80.51
2018-11-27T02:05:50.970Z,80.54
2018-11-27T02:06:50.956Z,80.30
2018-11-27T02:07:50.985Z,79.98
2018-11-27T02:08:50.929Z,79.98
2018-11-27T02:09:50.914Z,80.08
2018-11-27T02:10:50.910Z,81.07
2018-11-27T02:11:50.895Z,80.76
2018-11-27T02:12:50.884Z,81.07
2018-11-27T02:13:50.909Z,80.97
2018-11-27T02:14:50.868Z,80.93
2018-11-27T02:15:50.855Z,80.40
2018-11-27T02:16:50.839Z,79.70
2018-11-27T02:17:50.827Z,79.56
2018-11-27T02:18:50.827Z,79.66
2018-11-27T02:19:50.849Z,79.88
2018-11-27T02:20:50.806Z,79.46
2018-11-27T02:21:50.793Z,79.56
2018-11-27T02:22:50.780Z,79.77
2018-11-27T02:23:50.768Z,79.46
2018-11-27T02:24:50.755Z,79.98
2018-11-27T02:25:50.803Z,79.98
2018-11-27T02:26:50.735Z,78.50
2018-11-27T02:28:00.933Z,77.24
2018-11-27T02:28:50.715Z,77.34
2018-11-27T02:29:50.705Z,77.14
2018-11-27T02:30:50.694Z,77.24
2018-11-27T02:31:50.726Z,77.03
2018-11-27T02:32:50.672Z,77.03
2018-11-27T02:33:50.702Z,77.34
2018-11-27T02:34:50.655Z,76.92
2018-11-27T02:35:50.642Z,76.82
2018-11-27T02:36:50.635Z,77.98
2018-11-27T02:37:50.657Z,78.40
2018-11-27T02:38:50.609Z,78.61
2018-11-27T02:39:50.596Z,79.32
2018-11-27T02:40:50.582Z,80.05
2018-11-27T02:41:50.589Z,80.16
2018-11-27T02:42:50.567Z,80.26
2018-11-27T02:43:50.587Z,80.51
2018-11-27T02:44:50.543Z,80.51
2018-11-27T02:45:50.540Z,79.88
2018-11-27T02:46:50.519Z,79.56
2018-11-27T02:47:50.519Z,79.56
2018-11-27T02:48:50.507Z,80.30
2018-11-27T02:49:50.513Z,81.04
2018-11-27T02:50:50.477Z,80.23
2018-11-27T02:51:50.466Z,79.70
2018-11-27T02:52:50.460Z,80.02
2018-11-27T02:53:50.450Z,80.02
2018-11-27T02:54:50.442Z,79.91
2018-11-27T02:55:50.466Z,79.38
2018-11-27T02:56:50.417Z,79.28
2018-11-27T02:57:50.409Z,79.07
2018-11-27T02:59:00.694Z,78.86
2018-11-27T02:59:50.379Z,78.64
2018-11-27T03:00:50.375Z,78.96
2018-11-27T03:01:50.400Z,79.10
2018-11-27T03:02:50.354Z,79.28
2018-11-27T03:03:50.340Z,78.79
2018-11-27T03:04:50.335Z,77.80
2018-11-27T03:05:50.324Z,78.22
2018-11-27T03:06:50.404Z,78.96
2018-11-27T03:07:50.335Z,78.89
2018-11-27T03:08:50.291Z,78.33
2018-11-27T03:09:50.280Z,79.32
2018-11-27T03:10:50.265Z,79.21
2018-11-27T03:11:50.259Z,78.96
2018-11-27T03:12:50.256Z,79.17
2018-11-27T03:13:50.265Z,79.28
2018-11-27T03:14:50.220Z,79.07
2018-11-27T03:15:50.213Z,79.28
2018-11-27T03:16:50.217Z,78.96
2018-11-27T03:17:50.196Z,79.17
2018-11-27T03:18:50.184Z,79.17
2018-11-27T03:19:50.209Z,79.07
2018-11-27T03:20:50.166Z,79.17
2018-11-27T03:21:50.147Z,78.86
2018-11-27T03:22:50.140Z,79.91
2018-11-27T03:23:50.129Z,79.49
2018-11-27T03:24:50.122Z,79.17
2018-11-27T03:25:50.149Z,79.28
2018-11-27T03:26:50.101Z,79.03
2018-11-27T03:27:50.087Z,79.28
2018-11-27T03:28:50.074Z,79.17
2018-11-27T03:30:00.021Z,79.07
2018-11-27T03:30:50.081Z,79.28
2018-11-27T03:31:50.098Z,79.28
2018-11-27T03:32:50.040Z,78.96
2018-11-27T03:33:50.027Z,77.80
2018-11-27T03:34:50.021Z,76.96
2018-11-27T03:35:50.001Z,77.48
2018-11-27T03:36:49.991Z,77.28
2018-11-27T03:37:50.027Z,77.17
2018-11-27T03:38:49.980Z,77.80
2018-11-27T03:39:49.963Z,78.12
2018-11-27T03:40:49.952Z,77.91
2018-11-27T03:41:49.937Z,77.70
2018-11-27T03:42:49.928Z,77.48
2018-11-27T03:43:49.950Z,77.91
2018-11-27T03:44:49.910Z,78.12
2018-11-27T03:45:49.904Z,77.91
2018-11-27T03:46:49.895Z,78.02
2018-11-27T03:47:49.879Z,79.07
2018-11-27T03:48:49.859Z,78.64
2018-11-27T03:49:49.888Z,78.86
2018-11-27T03:50:49.856Z,78.96
2018-11-27T03:51:49.833Z,79.07
2018-11-27T03:52:49.823Z,78.64
2018-11-27T03:53:49.807Z,79.28
2018-11-27T03:54:49.798Z,78.86
2018-11-27T03:55:49.871Z,78.33
2018-11-27T03:56:49.776Z,79.28
2018-11-27T03:57:49.771Z,79.49
2018-11-27T03:58:49.769Z,78.86
2018-11-27T03:59:49.751Z,78.75
2018-11-27T04:00:59.897Z,78.96
2018-11-27T04:01:49.725Z,78.40
2018-11-27T04:02:49.795Z,78.92
2018-11-27T04:03:49.703Z,78.82
2018-11-27T04:04:49.700Z,78.82
2018-11-27T04:05:49.679Z,79.35
2018-11-27T04:06:49.706Z,78.40
2018-11-27T04:07:49.669Z,79.24
2018-11-27T04:08:49.649Z,79.35
2018-11-27T04:09:49.649Z,79.24
2018-11-27T04:10:49.633Z,79.24
2018-11-27T04:11:49.614Z,79.35
2018-11-27T04:12:49.786Z,78.82
2018-11-27T04:13:49.596Z,78.82
2018-11-27T04:14:49.584Z,79.49
2018-11-27T04:15:49.578Z,78.82
2018-11-27T04:16:49.566Z,79.98
2018-11-27T04:17:49.551Z,80.33
2018-11-27T04:18:49.606Z,80.93
2018-11-27T04:19:49.529Z,80.86
2018-11-27T04:20:49.522Z,80.72
2018-11-27T04:21:49.507Z,81.07
2018-11-27T04:22:49.510Z,81.07
2018-11-27T04:23:49.488Z,80.97
2018-11-27T04:24:49.493Z,81.07
2018-11-27T04:25:49.468Z,80.30
2018-11-27T04:26:49.457Z,79.88
2018-11-27T04:27:49.451Z,79.88
2018-11-27T04:28:49.439Z,80.33
2018-11-27T04:29:49.424Z,80.08
2018-11-27T04:30:49.451Z,80.97
2018-11-27T04:31:59.804Z,80.76
2018-11-27T04:32:49.393Z,80.54
2018-11-27T04:33:49.379Z,80.33
2018-11-27T04:34:49.381Z,80.54
2018-11-27T04:35:49.359Z,81.18
2018-11-27T04:36:49.390Z,81.07
2018-11-27T04:37:49.345Z,81.07
2018-11-27T04:38:49.330Z,81.18
2018-11-27T04:39:49.317Z,81.07
2018-11-27T04:40:49.316Z,81.04
2018-11-27T04:41:49.300Z,81.18
2018-11-27T04:42:49.302Z,81.88
2018-11-27T04:43:49.279Z,81.24
2018-11-27T04:44:49.270Z,81.98
2018-11-27T04:45:49.260Z,81.98
2018-11-27T04:46:49.252Z,81.98
2018-11-27T04:47:49.240Z,81.46
2018-11-27T04:48:49.275Z,81.98
2018-11-27T04:49:49.224Z,81.98
2018-11-27T04:50:49.199Z,82.13
2018-11-27T04:51:49.196Z,82.09
2018-11-27T04:52:49.183Z,82.65
2018-11-27T04:53:49.173Z,82.09
2018-11-27T04:54:49.196Z,82.30
2018-11-27T04:55:49.151Z,81.35
2018-11-27T04:56:49.140Z,81.98
2018-11-27T04:57:49.127Z,81.81
2018-11-27T04:58:49.130Z,82.40
2018-11-27T04:59:49.110Z,82.51
2018-11-27T05:00:49.134Z,82.44
2018-11-27T05:01:49.082Z,82.62
2018-11-27T05:02:59.572Z,82.02
2018-11-27T05:03:49.059Z,82.82
2018-11-27T05:04:49.055Z,82.20
2018-11-27T05:05:49.050Z,82.82
2018-11-27T05:06:49.127Z,82.93
2018-11-27T05:07:49.030Z,83.88
2018-11-27T05:08:49.013Z,83.88
2018-11-27T05:09:48.998Z,84.20
2018-11-27T05:10:48.987Z,84.30
2018-11-27T05:11:48.976Z,84.13
2018-11-27T05:12:49.137Z,83.78
2018-11-27T05:13:48.955Z,83.56
2018-11-27T05:14:48.946Z,84.02
2018-11-27T05:15:48.942Z,83.88
2018-11-27T05:16:48.927Z,83.56
2018-11-27T05:17:48.915Z,83.46
2018-11-27T05:18:48.981Z,83.98
2018-11-27T05:19:48.890Z,83.14
2018-11-27T05:20:48.884Z,82.62
2018-11-27T05:21:48.877Z,82.62
2018-11-27T05:22:48.866Z,82.55
2018-11-27T05:23:48.848Z,82.72
2018-11-27T05:24:48.874Z,82.62
2018-11-27T05:25:48.831Z,83.14
2018-11-27T05:26:48.821Z,83.18
2018-11-27T05:27:48.808Z,82.62
2018-11-27T05:28:48.802Z,82.72
2018-11-27T05:29:48.781Z,83.88
2018-11-27T05:30:48.918Z,83.88
2018-11-27T05:31:48.764Z,83.98
2018-11-27T05:32:48.751Z,83.46
2018-11-27T05:33:59.778Z,82.82
2018-11-27T05:34:48.733Z,83.25
2018-11-27T05:35:48.723Z,83.78
2018-11-27T05:36:48.830Z,83.67
2018-11-27T05:37:48.699Z,84.30
2018-11-27T05:38:48.698Z,84.30
2018-11-27T05:39:48.683Z,83.98
2018-11-27T05:40:48.669Z,83.92
2018-11-27T05:41:48.658Z,84.20
2018-11-27T05:42:48.665Z,83.56
2018-11-27T05:43:48.641Z,83.04
2018-11-27T05:44:48.627Z,83.04
2018-11-27T05:45:48.610Z,83.14
2018-11-27T05:46:48.605Z,83.25
2018-11-27T05:47:48.588Z,82.93
2018-11-27T05:48:48.763Z,82.58
2018-11-27T05:49:48.573Z,82.40
2018-11-27T05:50:48.564Z,82.72
2018-11-27T05:51:48.548Z,81.56
2018-11-27T05:52:48.545Z,81.88
2018-11-27T05:53:48.563Z,81.88
2018-11-27T05:54:48.557Z,81.77
2018-11-27T05:55:48.505Z,82.62
2018-11-27T05:56:48.495Z,82.40
2018-11-27T05:57:48.488Z,82.26
2018-11-27T05:58:48.477Z,81.24
2018-11-27T05:59:48.478Z,81.24
2018-11-27T06:00:48.652Z,81.24
2018-11-27T06:01:48.446Z,79.94
2018-11-27T06:02:48.478Z,80.93
2018-11-27T06:03:48.420Z,81.32
2018-11-27T06:04:59.775Z,81.77
2018-11-27T06:05:48.397Z,81.35
2018-11-27T06:06:48.441Z,80.30
2018-11-27T06:07:48.413Z,79.24
2018-11-27T06:08:48.367Z,78.72
2018-11-27T06:09:48.354Z,77.87
2018-11-27T06:10:48.360Z,78.44
2018-11-27T06:11:48.333Z,79.07
2018-11-27T06:12:48.367Z,78.08
2018-11-27T06:13:48.347Z,78.44
2018-11-27T06:14:48.302Z,78.54
2018-11-27T06:15:48.299Z,78.75
2018-11-27T06:16:48.290Z,78.02
2018-11-27T06:17:48.273Z,78.54
2018-11-27T06:18:48.318Z,78.96
2018-11-27T06:19:48.254Z,78.96
2018-11-27T06:20:48.292Z,78.44
2018-11-27T06:21:48.235Z,79.28
2018-11-27T06:22:48.227Z,79.53
2018-11-27T06:23:48.207Z,79.70
2018-11-27T06:24:48.293Z,79.95
2018-11-27T06:25:48.189Z,79.91
2018-11-27T06:26:48.198Z,79.84
2018-11-27T06:27:48.246Z,79.70
2018-11-27T06:28:48.185Z,79.49
2018-11-27T06:29:48.145Z,79.53
2018-11-27T06:30:48.211Z,80.27
2018-11-27T06:31:48.135Z,80.47
2018-11-27T06:32:48.116Z,81.18
2018-11-27T06:33:48.107Z,81.01
2018-11-27T06:34:48.111Z,81.11
2018-11-27T06:35:58.462Z,80.79
2018-11-27T06:36:48.084Z,80.47
2018-11-27T06:37:48.060Z,80.05
2018-11-27T06:38:48.069Z,80.37
2018-11-27T06:39:48.065Z,80.79
2018-11-27T06:40:48.044Z,81.32
2018-11-27T06:41:48.103Z,81.11
2018-11-27T06:42:48.024Z,80.69
2018-11-27T06:43:48.095Z,80.12
2018-11-27T06:44:48.006Z,80.76
2018-11-27T06:45:47.969Z,81.39
2018-11-27T06:46:47.988Z,81.11
2018-11-27T06:47:48.067Z,80.90
2018-11-27T06:48:47.947Z,81.60
2018-11-27T06:49:47.943Z,81.53
2018-11-27T06:50:47.918Z,81.53
2018-11-27T06:51:47.929Z,81.32
2018-11-27T06:52:47.907Z,81.21
2018-11-27T06:53:47.942Z,80.05
2018-11-27T06:54:47.935Z,80.51
2018-11-27T06:55:47.863Z,80.90
2018-11-27T06:56:47.866Z,80.16
2018-11-27T06:57:47.850Z,79.95
2018-11-27T06:58:47.899Z,80.41
2018-11-27T06:59:47.868Z,80.93
2018-11-27T07:00:47.821Z,80.93
2018-11-27T07:01:47.811Z,81.57
2018-11-27T07:02:47.793Z,82.09
2018-11-27T07:03:47.782Z,81.46
2018-11-27T07:04:47.778Z,81.25
2018-11-27T07:05:47.792Z,81.35
2018-11-27T07:06:58.035Z,80.93
2018-11-27T07:07:47.742Z,80.93
2018-11-27T07:08:47.739Z,81.15
2018-11-27T07:09:47.717Z,80.41
2018-11-27T07:10:47.718Z,81.15
2018-11-27T07:11:48.038Z,80.41
2018-11-27T07:12:47.692Z,79.77
2018-11-27T07:13:47.678Z,79.25
2018-11-27T07:14:47.675Z,79.25
2018-11-27T07:15:47.661Z,78.61
2018-11-27T07:16:47.642Z,78.93
2018-11-27T07:17:47.686Z,78.93
2018-11-27T07:18:47.627Z,78.93
2018-11-27T07:19:47.619Z,78.61
2018-11-27T07:20:47.601Z,78.93
2018-11-27T07:21:47.595Z,78.93
2018-11-27T07:22:47.586Z,78.82
2018-11-27T07:23:47.587Z,78.30
2018-11-27T07:24:47.555Z,78.51
2018-11-27T07:25:47.555Z,78.51
2018-11-27T07:26:52.790Z,77.98
2018-11-27T07:27:48.537Z,77.87
2018-11-27T07:28:47.520Z,77.24
2018-11-27T07:29:47.546Z,78.30
2018-11-27T07:30:47.497Z,78.40
2018-11-27T07:31:47.480Z,78.89
2018-11-27T07:32:47.472Z,79.21
2018-11-27T07:33:47.469Z,78.79
2018-11-27T07:34:47.462Z,78.47
2018-11-27T07:35:47.479Z,79.10
2018-11-27T07:36:47.429Z,77.73
2018-11-27T07:37:57.863Z,77.31
2018-11-27T07:38:47.405Z,79.10
2018-11-27T07:39:47.403Z,79.00
2018-11-27T07:40:47.389Z,78.05
2018-11-27T07:41:47.401Z,78.79
2018-11-27T07:42:47.370Z,78.79
2018-11-27T07:43:47.358Z,79.00
2018-11-27T07:44:47.359Z,78.89
2018-11-27T07:45:47.337Z,78.79
2018-11-27T07:46:47.329Z,78.58
2018-11-27T07:47:47.357Z,78.89
2018-11-27T07:48:47.309Z,79.32
2018-11-27T07:49:47.294Z,79.42
2018-11-27T07:50:47.283Z,79.42
2018-11-27T07:51:47.266Z,79.60
2018-11-27T07:52:47.257Z,79.10
2018-11-27T07:53:47.319Z,79.63
2018-11-27T07:54:47.240Z,79.10
2018-11-27T07:55:47.228Z,78.58
2018-11-27T07:56:47.227Z,79.21
2018-11-27T07:57:47.210Z,79.21
2018-11-27T07:58:47.200Z,80.02
2018-11-27T07:59:47.223Z,79.63
2018-11-27T08:00:47.175Z,79.28
2018-11-27T08:01:47.166Z,79.95
2018-11-27T08:02:47.156Z,79.42
2018-11-27T08:03:47.148Z,79.53
2018-11-27T08:04:47.127Z,79.80
2018-11-27T08:05:47.158Z,80.33
2018-11-27T08:06:47.105Z,80.76
2018-11-27T08:07:47.094Z,80.97
2018-11-27T08:08:57.987Z,80.27
2018-11-27T08:09:47.079Z,80.47
2018-11-27T08:10:47.079Z,80.79
2018-11-27T08:11:47.104Z,81.18
2018-11-27T08:12:47.049Z,80.02
2018-11-27T08:13:47.036Z,80.33
2018-11-27T08:14:47.057Z,80.97
2018-11-27T08:15:47.015Z,81.07
2018-11-27T08:16:47.006Z,80.97
2018-11-27T08:17:47.044Z,80.86
2018-11-27T08:18:46.981Z,80.86
2018-11-27T08:19:46.979Z,80.02
2018-11-27T08:20:46.960Z,80.86
2018-11-27T08:21:46.958Z,79.91
2018-11-27T08:22:46.953Z,79.80
2018-11-27T08:23:46.959Z,79.91
2018-11-27T08:24:47.330Z,80.33
2018-11-27T08:25:46.969Z,80.86
2018-11-27T08:26:46.896Z,81.07
2018-11-27T08:27:46.889Z,81.39
2018-11-27T08:28:46.877Z,81.92
2018-11-27T08:29:46.905Z,81.81
2018-11-27T08:30:46.865Z,81.92
2018-11-27T08:31:46.837Z,81.60
2018-11-27T08:32:46.832Z,81.92
2018-11-27T08:33:46.825Z,82.02
2018-11-27T08:34:46.813Z,82.02
2018-11-27T08:35:46.853Z,82.23
2018-11-27T08:36:46.890Z,82.02
2018-11-27T08:37:46.773Z,82.23
2018-11-27T08:38:46.766Z,82.23
2018-11-27T08:39:56.861Z,82.65
2018-11-27T08:40:46.746Z,82.79
2018-11-27T08:41:46.771Z,83.11
2018-11-27T08:42:46.755Z,83.07
2018-11-27T08:43:46.711Z,82.90
2018-11-27T08:44:46.720Z,82.65
2018-11-27T08:45:46.692Z,82.13
2018-11-27T08:46:46.684Z,82.97
2018-11-27T08:47:46.712Z,82.97
2018-11-27T08:48:46.658Z,82.65
2018-11-27T08:49:46.648Z,82.90
2018-11-27T08:50:46.633Z,82.97
2018-11-27T08:51:46.629Z,81.95
2018-11-27T08:52:47.094Z,82.34
2018-11-27T08:53:46.671Z,82.55
2018-11-27T08:54:46.604Z,82.76
2018-11-27T08:55:46.585Z,82.34
2018-11-27T08:56:46.571Z,82.02
2018-11-27T08:57:46.558Z,81.92
2018-11-27T08:58:46.560Z,81.85
2018-11-27T08:59:47.102Z,80.47
2018-11-27T09:00:46.529Z,80.05
2018-11-27T09:01:46.517Z,80.02
2018-11-27T09:02:46.507Z,79.07
2018-11-27T09:03:46.608Z,79.32
2018-11-27T09:04:46.485Z,79.17
2018-11-27T09:05:46.519Z,79.42
2018-11-27T09:06:46.471Z,79.32
2018-11-27T09:07:46.474Z,79.74
2018-11-27T09:08:46.448Z,79.10
2018-11-27T09:09:46.429Z,78.64
2018-11-27T09:10:56.556Z,78.75
2018-11-27T09:11:46.410Z,78.02
2018-11-27T09:12:46.404Z,76.86
2018-11-27T09:13:46.390Z,76.12
2018-11-27T09:14:46.379Z,76.01
2018-11-27T09:15:46.375Z,75.48
2018-11-27T09:16:46.402Z,74.96
2018-11-27T09:17:46.348Z,75.70
2018-11-27T09:18:46.336Z,76.01
2018-11-27T09:19:46.376Z,77.48
2018-11-27T09:20:46.332Z,76.12
2018-11-27T09:21:46.307Z,76.12
2018-11-27T09:22:46.390Z,76.12
2018-11-27T09:23:46.322Z,76.86
2018-11-27T09:24:46.272Z,76.01
2018-11-27T09:25:46.284Z,76.12
2018-11-27T09:26:46.255Z,76.68
2018-11-27T09:27:46.243Z,76.01
2018-11-27T09:28:46.412Z,77.28
2018-11-27T09:29:46.225Z,76.36
2018-11-27T09:30:46.211Z,75.10
2018-11-27T09:31:46.208Z,76.04
2018-11-27T09:32:46.193Z,77.20
2018-11-27T09:33:46.180Z,77.20
2018-11-27T09:34:46.181Z,76.64
2018-11-27T09:35:46.159Z,77.28
2018-11-27T09:36:46.154Z,77.00
2018-11-27T09:37:46.137Z,76.43
2018-11-27T09:38:46.128Z,77.28
2018-11-27T09:39:46.110Z,76.43
2018-11-27T09:40:46.140Z,77.17
2018-11-27T09:41:56.167Z,77.38
2018-11-27T09:42:46.082Z,75.90
2018-11-27T09:43:46.076Z,75.80
2018-11-27T09:44:46.059Z,75.27
2018-11-27T09:45:46.054Z,77.28
2018-11-27T09:46:46.074Z,76.86
2018-11-27T09:47:46.029Z,77.42
2018-11-27T09:48:46.021Z,77.70
2018-11-27T09:49:46.015Z,78.12
2018-11-27T09:50:46.005Z,77.06
2018-11-27T09:51:46.039Z,77.06
2018-11-27T09:52:46.040Z,76.75
2018-11-27T09:53:45.964Z,77.20
2018-11-27T09:54:45.998Z,77.10
2018-11-27T09:55:45.945Z,78.05
2018-11-27T09:56:45.937Z,77.38
2018-11-27T09:57:45.918Z,77.31
2018-11-27T09:58:45.955Z,77.48
2018-11-27T09:59:45.897Z,77.80
2018-11-27T10:00:45.892Z,77.91
2018-11-27T10:01:45.878Z,77.59
2018-11-27T10:02:45.872Z,77.59
2018-11-27T10:03:45.867Z,78.02
2018-11-27T10:04:45.864Z,78.12
2018-11-27T10:05:46.515Z,77.80
2018-11-27T10:06:45.822Z,78.86
2018-11-27T10:07:45.819Z,78.75
2018-11-27T10:08:45.802Z,78.86
2018-11-27T10:09:45.798Z,78.96
2018-11-27T10:10:45.825Z,78.54
2018-11-27T10:11:45.787Z,78.96
2018-11-27T10:12:57.037Z,78.64
2018-11-27T10:13:45.752Z,78.96
2018-11-27T10:14:45.741Z,78.96
2018-11-27T10:15:45.731Z,78.89
2018-11-27T10:16:45.754Z,79.10
2018-11-27T10:17:46.598Z,79.95
2018-11-27T10:18:45.693Z,79.49
2018-11-27T10:19:45.683Z,79.21
2018-11-27T10:20:45.702Z,79.38
2018-11-27T10:21:45.680Z,79.28
2018-11-27T10:22:45.694Z,79.10
2018-11-27T10:23:45.645Z,79.28
2018-11-27T10:24:45.632Z,78.16
2018-11-27T10:25:45.620Z,78.05
2018-11-27T10:26:45.614Z,79.10
2018-11-27T10:27:45.641Z,79.32
2018-11-27T10:28:45.629Z,78.54
2018-11-27T10:29:45.578Z,78.96
2018-11-27T10:30:45.571Z,78.44
2018-11-27T10:31:45.556Z,78.54
2018-11-27T10:32:45.556Z,78.54
2018-11-27T10:33:45.539Z,78.96
2018-11-27T10:34:45.560Z,77.70
2018-11-27T10:35:45.536Z,77.06
2018-11-27T10:36:45.507Z,77.59
2018-11-27T10:37:45.495Z,76.96
2018-11-27T10:38:45.486Z,75.80
2018-11-27T10:39:45.470Z,75.16
2018-11-27T10:40:45.506Z,76.12
2018-11-27T10:41:45.448Z,76.54
2018-11-27T10:42:45.518Z,77.38
2018-11-27T10:43:55.813Z,76.01
2018-11-27T10:44:45.416Z,76.12
2018-11-27T10:45:45.424Z,76.64
2018-11-27T10:46:45.486Z,75.90
2018-11-27T10:47:45.390Z,76.12
2018-11-27T10:48:45.376Z,74.96
2018-11-27T10:49:45.369Z,75.38
2018-11-27T10:50:45.354Z,75.48
2018-11-27T10:51:45.351Z,75.59
2018-11-27T10:52:45.372Z,75.59
2018-11-27T10:53:45.323Z,75.27
2018-11-27T10:54:45.311Z,75.45
2018-11-27T10:55:45.305Z,75.90
2018-11-27T10:56:45.294Z,77.06
2018-11-27T10:57:45.277Z,75.16
2018-11-27T10:58:45.313Z,75.90
2018-11-27T10:59:45.262Z,74.96
2018-11-27T11:00:45.251Z,74.64
2018-11-27T11:01:45.245Z,74.32
2018-11-27T11:02:45.271Z,73.80
2018-11-27T11:03:45.218Z,74.22
2018-11-27T11:04:45.245Z,74.11
2018-11-27T11:05:45.199Z,74.22
2018-11-27T11:06:45.184Z,74.85
2018-11-27T11:07:45.182Z,74.01
2018-11-27T11:08:45.169Z,74.01
2018-11-27T11:09:45.156Z,73.80
2018-11-27T11:10:45.192Z,74.32
2018-11-27T11:11:45.134Z,74.11
2018-11-27T11:12:45.125Z,73.48
2018-11-27T11:13:45.109Z,74.08
2018-11-27T11:14:55.620Z,73.48
2018-11-27T11:15:45.090Z,74.82
2018-11-27T11:16:45.100Z,74.61
2018-11-27T11:17:45.067Z,74.82
2018-11-27T11:18:45.072Z,74.64
2018-11-27T11:19:45.046Z,75.03
2018-11-27T11:20:45.034Z,75.13
2018-11-27T11:21:45.032Z,75.45
2018-11-27T11:22:45.028Z,74.99
2018-11-27T11:23:45.007Z,75.56
2018-11-27T11:24:44.990Z,75.45
2018-11-27T11:25:44.983Z,75.24
2018-11-27T11:26:44.968Z,75.56
2018-11-27T11:27:44.971Z,75.98
2018-11-27T11:28:44.985Z,75.34
2018-11-27T11:29:44.933Z,75.06
2018-11-27T11:30:44.932Z,75.16
2018-11-27T11:31:44.922Z,75.70
2018-11-27T11:32:44.903Z,76.12
2018-11-27T11:33:44.891Z,75.98
2018-11-27T11:34:44.921Z,75.98
2018-11-27T11:35:44.875Z,75.66
2018-11-27T11:36:44.877Z,75.56
2018-11-27T11:37:44.856Z,75.66
2018-11-27T11:38:44.846Z,75.34
2018-11-27T11:39:44.832Z,75.76
2018-11-27T11:40:44.861Z,75.38
2018-11-27T11:41:44.808Z,75.59
2018-11-27T11:42:44.803Z,75.56
2018-11-27T11:43:44.793Z,75.27
2018-11-27T11:44:44.780Z,75.59
2018-11-27T11:45:57.639Z,76.01
2018-11-27T11:46:44.757Z,75.59
2018-11-27T11:47:44.749Z,75.80
2018-11-27T11:48:44.735Z,75.80
2018-11-27T11:49:44.722Z,75.38
2018-11-27T11:50:44.710Z,76.12
2018-11-27T11:51:44.742Z,75.16
2018-11-27T11:52:45.491Z,74.78
2018-11-27T11:53:44.678Z,74.46
2018-11-27T11:54:44.671Z,74.78
2018-11-27T11:55:44.659Z,74.99
2018-11-27T11:56:44.649Z,74.54
2018-11-27T11:57:44.689Z,74.88
2018-11-27T11:58:44.625Z,76.15
2018-11-27T11:59:44.616Z,74.88
2018-11-27T12:00:44.610Z,75.73
2018-11-27T12:01:44.597Z,74.78
2018-11-27T12:02:44.580Z,74.78
2018-11-27T12:03:44.612Z,74.78
2018-11-27T12:04:44.564Z,74.57
2018-11-27T12:05:44.554Z,75.55
2018-11-27T12:06:44.556Z,75.84
2018-11-27T12:07:44.541Z,75.20
2018-11-27T12:08:44.517Z,74.99
2018-11-27T12:09:44.544Z,74.39
2018-11-27T12:10:44.496Z,75.10
2018-11-27T12:11:44.495Z,75.76
2018-11-27T12:12:44.481Z,74.99
2018-11-27T12:13:44.463Z,74.92
2018-11-27T12:14:44.456Z,75.10
2018-11-27T12:15:44.631Z,74.71
2018-11-27T12:16:54.411Z,75.13
2018-11-27T12:17:44.430Z,75.45
2018-11-27T12:18:44.415Z,75.13
2018-11-27T12:19:44.410Z,75.45
2018-11-27T12:20:44.393Z,75.55
2018-11-27T12:21:44.421Z,75.34
2018-11-27T12:22:44.371Z,75.98
2018-11-27T12:23:44.360Z,76.82
2018-11-27T12:24:44.348Z,76.08
2018-11-27T12:25:44.339Z,75.55
2018-11-27T12:26:44.328Z,75.76
2018-11-27T12:27:44.584Z,75.34
2018-11-27T12:28:44.889Z,75.76
2018-11-27T12:29:44.298Z,75.76
2018-11-27T12:30:44.282Z,75.02
2018-11-27T12:31:44.276Z,75.87
2018-11-27T12:32:44.267Z,75.66
2018-11-27T12:33:44.296Z,76.01
2018-11-27T12:34:44.253Z,77.59
2018-11-27T12:35:44.272Z,76.43
2018-11-27T12:36:44.223Z,77.48
2018-11-27T12:37:44.208Z,76.64
2018-11-27T12:38:44.199Z,76.86
2018-11-27T12:39:44.224Z,77.59
2018-11-27T12:40:44.177Z,77.17
2018-11-27T12:41:44.169Z,77.80
2018-11-27T12:42:44.157Z,78.02
2018-11-27T12:43:44.148Z,77.42
2018-11-27T12:44:44.140Z,77.91
2018-11-27T12:45:44.161Z,77.31
2018-11-27T12:46:44.115Z,77.06
2018-11-27T12:47:54.378Z,77.38
2018-11-27T12:48:44.091Z,77.38
2018-11-27T12:49:44.083Z,75.80
2018-11-27T12:50:44.072Z,75.37
2018-11-27T12:51:44.097Z,74.63
2018-11-27T12:52:44.058Z,75.51